createdAt,value
2018-12-12T00:02:45.107Z,8.77
2018-12-12T00:07:47.589Z,9.63
2018-12-12T00:12:49.807Z,8.30
2018-12-12T00:17:52.378Z,8.40
2018-12-12T00:22:53.098Z,8.43
2018-12-12T00:27:53.921Z,9.47
2018-12-12T00:32:54.737Z,8.07
2018-12-12T00:37:55.576Z,9.40
2018-12-12T00:42:56.385Z,7.30
2018-12-12T00:47:57.245Z,8.83
2018-12-12T00:52:58.023Z,8.47
2018-12-12T00:57:59.260Z,8.07
2018-12-12T01:03:00.024Z,8.33
2018-12-12T01:08:00.753Z,8.00
2018-12-12T01:13:01.526Z,7.83
2018-12-12T01:18:02.276Z,7.27
2018-12-12T01:23:03.257Z,7.70
2018-12-12T01:28:03.905Z,6.33
2018-12-12T01:33:04.707Z,4.33
2018-12-12T01:38:05.471Z,6.93
2018-12-12T01:43:06.350Z,8.37
2018-12-12T01:48:07.158Z,8.67
2018-12-12T01:53:07.978Z,7.33
2018-12-12T01:58:08.660Z,8.37
2018-12-12T02:03:09.286Z,8.00
2018-12-12T02:08:10.453Z,7.40
2018-12-12T02:13:22.374Z,7.63
2018-12-12T02:18:23.181Z,7.10
2018-12-12T02:23:23.992Z,7.70
2018-12-12T02:28:24.836Z,7.23
2018-12-12T02:33:25.638Z,7.33
2018-12-12T02:38:26.394Z,7.10
2018-12-12T02:43:27.249Z,6.13
2018-12-12T02:48:31.279Z,7.63
2018-12-12T02:53:32.106Z,6.37
2018-12-12T02:58:32.815Z,6.73
2018-12-12T03:03:33.451Z,5.97
2018-12-12T03:08:34.412Z,6.43
2018-12-12T03:13:35.275Z,7.40
2018-12-12T03:18:36.298Z,6.70
2018-12-12T03:23:37.262Z,6.93
2018-12-12T03:28:39.301Z,7.77
2018-12-12T03:33:40.207Z,6.00
2018-12-12T03:38:41.085Z,6.20
2018-12-12T03:43:41.917Z,6.00
2018-12-12T03:48:42.653Z,6.87
2018-12-12T03:53:43.441Z,7.40
2018-12-12T03:58:44.201Z,7.00
2018-12-12T04:03:44.929Z,5.93
2018-12-12T04:08:45.718Z,6.47
2018-12-12T04:13:46.559Z,5.17
2018-12-12T04:18:47.887Z,5.30
2018-12-12T04:23:48.639Z,5.20
2018-12-12T04:28:49.608Z,4.87
2018-12-12T04:33:50.599Z,5.80
2018-12-12T04:38:51.446Z,6.07
2018-12-12T04:43:52.195Z,5.60
2018-12-12T04:48:53.386Z,6.03
2018-12-12T04:53:58.206Z,4.90
2018-12-12T04:58:59.417Z,5.70
2018-12-12T05:04:00.219Z,5.63
2018-12-12T05:09:01.048Z,5.87
2018-12-12T05:14:04.457Z,5.30
2018-12-12T05:19:05.273Z,5.53
2018-12-12T05:24:06.095Z,5.50
2018-12-12T05:29:06.950Z,6.63
2018-12-12T05:34:07.787Z,6.20
2018-12-12T05:39:08.538Z,7.07
2018-12-12T05:44:10.602Z,6.63
2018-12-12T05:49:11.387Z,8.20
2018-12-12T05:54:12.170Z,8.67
2018-12-12T05:59:13.100Z,8.07
2018-12-12T06:04:14.296Z,7.70
2018-12-12T06:09:15.034Z,7.43
2018-12-12T06:14:15.836Z,8.50
2018-12-12T06:19:16.534Z,9.43
2018-12-12T06:24:17.378Z,9.17
2018-12-12T06:29:19.107Z,9.47
2018-12-12T06:34:19.935Z,9.47
2018-12-12T06:39:20.692Z,9.07
2018-12-12T06:44:21.517Z,10.10
2018-12-12T06:49:22.259Z,9.20
2018-12-12T06:54:23.012Z,10.20
2018-12-12T06:59:23.797Z,10.07
2018-12-12T07:04:25.183Z,9.47
2018-12-12T07:09:25.845Z,9.97
2018-12-12T07:14:26.707Z,11.77
2018-12-12T07:19:27.577Z,11.07
2018-12-12T07:24:28.364Z,11.73
2018-12-12T07:29:29.186Z,13.00
2018-12-12T07:34:29.973Z,12.63
2018-12-12T07:39:30.739Z,10.77
2018-12-12T07:44:31.531Z,12.03
2018-12-12T07:49:50.806Z,13.13
2018-12-12T07:54:57.037Z,13.10
2018-12-12T07:59:57.845Z,13.07
2018-12-12T08:04:58.585Z,12.87
2018-12-12T08:09:59.376Z,11.60
2018-12-12T08:15:00.168Z,11.17
2018-12-12T08:20:00.944Z,12.87
2018-12-12T08:25:04.150Z,11.97
2018-12-12T08:30:05.924Z,13.40
2018-12-12T08:35:07.710Z,13.63
2018-12-12T08:40:09.537Z,14.57
2018-12-12T08:45:10.215Z,13.93
2018-12-12T08:50:12.947Z,11.80
2018-12-12T08:55:17.831Z,11.20
2018-12-12T09:00:17.710Z,12.87
2018-12-12T09:05:18.923Z,12.23
2018-12-12T09:10:19.666Z,12.83
2018-12-12T09:15:20.549Z,13.10
2018-12-12T09:20:21.471Z,12.67
2018-12-12T09:25:22.295Z,13.77
2018-12-12T09:30:23.159Z,13.13
2018-12-12T09:35:26.819Z,12.70
2018-12-12T09:40:29.019Z,12.93
2018-12-12T09:45:29.969Z,13.33
2018-12-12T09:50:31.084Z,15.20
2018-12-12T09:55:33.587Z,12.83
2018-12-12T10:00:34.291Z,14.83
2018-12-12T10:05:35.229Z,14.70
2018-12-12T10:10:36.121Z,14.43
2018-12-12T10:15:36.946Z,13.63
2018-12-12T10:20:37.759Z,13.23
2018-12-12T10:25:38.572Z,13.20
2018-12-12T10:30:40.574Z,13.93
2018-12-12T10:35:41.427Z,15.07
2018-12-12T10:40:42.516Z,13.87
2018-12-12T10:45:43.326Z,12.97
2018-12-12T10:50:44.120Z,13.53
2018-12-12T10:55:44.805Z,14.53
2018-12-12T11:00:50.868Z,15.00
2018-12-12T11:05:51.796Z,14.43
2018-12-12T11:10:52.568Z,12.70
2018-12-12T11:15:53.463Z,13.77
2018-12-12T11:21:02.360Z,13.13
2018-12-12T11:26:07.214Z,11.03
2018-12-12T11:31:08.208Z,11.07
2018-12-12T11:36:09.704Z,10.50
2018-12-12T11:41:10.611Z,10.77
2018-12-12T11:46:11.507Z,9.83
2018-12-12T11:51:12.245Z,10.43
2018-12-12T11:56:13.040Z,11.47
2018-12-12T12:01:13.867Z,11.13
2018-12-12T12:06:14.692Z,8.73
2018-12-12T12:11:15.551Z,8.50
2018-12-12T12:16:18.427Z,10.20
2018-12-12T12:21:19.123Z,8.07
2018-12-12T12:26:20.712Z,8.90
2018-12-12T12:31:21.883Z,10.37
2018-12-12T12:36:23.043Z,9.90
2018-12-12T12:41:23.753Z,9.63
2018-12-12T12:46:25.676Z,9.97
2018-12-12T12:51:26.403Z,7.57
2018-12-12T12:56:27.237Z,10.33
2018-12-12T13:01:28.153Z,9.47
2018-12-12T13:06:29.013Z,8.53
2018-12-12T13:11:30.002Z,9.47
2018-12-12T13:16:30.890Z,9.23
2018-12-12T13:21:31.550Z,9.20
2018-12-12T13:26:32.779Z,9.50
2018-12-12T13:31:33.600Z,8.47
2018-12-12T13:36:34.301Z,10.10
2018-12-12T13:41:34.932Z,9.83
2018-12-12T13:46:35.844Z,8.33
2018-12-12T13:51:36.519Z,7.93
2018-12-12T13:56:37.443Z,7.07
2018-12-12T14:01:38.659Z,8.60
2018-12-12T14:06:39.533Z,9.77
2018-12-12T14:11:40.688Z,7.83
2018-12-12T14:16:41.882Z,9.10
2018-12-12T14:21:42.675Z,7.57
2018-12-12T14:26:43.591Z,8.60
2018-12-12T14:31:44.399Z,8.37
2018-12-12T14:36:45.160Z,9.00
2018-12-12T14:41:45.875Z,9.20
2018-12-12T14:46:46.773Z,9.13
2018-12-12T14:51:47.807Z,9.27
2018-12-12T15:02:23.512Z,9.70
2018-12-12T15:07:24.228Z,7.53
2018-12-12T15:12:25.119Z,8.97
2018-12-12T15:17:26.406Z,8.50
2018-12-12T15:22:27.931Z,9.10
2018-12-12T15:27:30.432Z,8.30
2018-12-12T15:32:31.444Z,8.70
2018-12-12T15:37:32.392Z,9.97
2018-12-12T15:42:33.131Z,9.20
2018-12-12T15:47:34.148Z,8.70
2018-12-12T15:52:34.995Z,8.60
2018-12-12T15:57:36.291Z,9.40
2018-12-12T16:02:37.650Z,9.03
2018-12-12T16:07:38.655Z,8.70
2018-12-12T16:12:39.510Z,8.30
2018-12-12T16:17:40.189Z,9.23
2018-12-12T16:22:41.055Z,9.23
2018-12-12T16:27:42.030Z,9.43
2018-12-12T16:32:43.447Z,9.53
2018-12-12T16:37:44.635Z,10.17
2018-12-12T16:42:45.478Z,8.73
2018-12-12T16:47:48.113Z,7.97
2018-12-12T16:52:48.893Z,6.60
2018-12-12T16:57:49.622Z,6.07
2018-12-12T17:02:50.473Z,6.53
2018-12-12T17:07:51.311Z,5.90
2018-12-12T17:12:52.177Z,5.60
2018-12-12T17:17:53.042Z,5.47
2018-12-12T17:22:53.853Z,4.53
2018-12-12T17:27:54.618Z,4.10
2018-12-12T17:32:55.419Z,4.63
2018-12-12T17:37:56.195Z,4.67
2018-12-12T17:42:57.121Z,4.30
2018-12-12T17:47:57.978Z,4.07
2018-12-12T17:52:58.840Z,3.63
2018-12-12T17:57:59.572Z,3.90
2018-12-12T18:03:00.330Z,4.60
2018-12-12T18:08:21.575Z,3.43
2018-12-12T18:13:22.449Z,3.63
2018-12-12T18:18:25.188Z,2.97
2018-12-12T18:23:26.081Z,4.80
2018-12-12T18:28:28.856Z,3.33
2018-12-12T18:33:29.659Z,3.03
2018-12-12T18:38:50.966Z,4.53
2018-12-12T18:43:52.954Z,3.17
2018-12-12T18:48:53.867Z,3.30
2018-12-12T18:53:56.666Z,3.07
2018-12-12T19:04:27.058Z,4.13
2018-12-12T19:09:27.834Z,3.70
2018-12-12T19:14:28.608Z,3.70
2018-12-12T19:19:29.464Z,3.50
2018-12-12T19:24:30.294Z,3.40
2018-12-12T19:29:33.337Z,4.47
2018-12-12T19:34:34.133Z,4.07
2018-12-12T19:39:35.756Z,3.70
2018-12-12T19:44:36.819Z,4.33
2018-12-12T19:49:37.869Z,4.93
2018-12-12T19:54:38.645Z,4.37
2018-12-12T19:59:39.791Z,4.93
2018-12-12T20:04:40.584Z,4.43
2018-12-12T20:09:41.391Z,4.77
2018-12-12T20:14:42.008Z,4.70
2018-12-12T20:19:43.111Z,4.87
2018-12-12T20:24:44.062Z,4.80
2018-12-12T20:29:45.731Z,3.47
2018-12-12T20:34:47.042Z,4.07
2018-12-12T20:39:47.788Z,4.57
2018-12-12T20:44:48.682Z,3.70
2018-12-12T20:49:50.345Z,3.33
2018-12-12T20:54:51.406Z,4.20
2018-12-12T20:59:52.297Z,4.33
2018-12-12T21:04:53.042Z,5.60
2018-12-12T21:09:53.927Z,6.00
2018-12-12T21:14:54.782Z,5.57
2018-12-12T21:19:55.982Z,4.23
2018-12-12T21:24:58.321Z,4.57
2018-12-12T21:29:59.870Z,4.80
2018-12-12T21:35:00.659Z,5.03
2018-12-12T21:40:01.883Z,4.70
2018-12-12T21:45:02.983Z,6.10
2018-12-12T21:50:04.223Z,6.47
2018-12-12T21:55:05.612Z,5.57
2018-12-12T22:00:08.031Z,5.17
2018-12-12T22:05:09.156Z,5.50
2018-12-12T22:10:10.881Z,5.30
2018-12-12T22:15:11.986Z,5.03
2018-12-12T22:20:13.016Z,5.47
2018-12-12T22:25:15.106Z,5.53
2018-12-12T22:30:16.013Z,5.33
2018-12-12T22:35:17.463Z,6.17
2018-12-12T22:40:18.269Z,5.07
2018-12-12T22:45:19.054Z,5.20
2018-12-12T22:50:20.098Z,5.70
2018-12-12T22:55:20.887Z,5.87
2018-12-12T23:00:40.054Z,5.23
2018-12-12T23:05:42.848Z,4.77
2018-12-12T23:10:43.567Z,6.23
2018-12-12T23:15:44.421Z,8.67
2018-12-12T23:20:45.279Z,5.20
2018-12-12T23:25:46.141Z,5.00
2018-12-12T23:30:47.042Z,5.50
2018-12-12T23:35:47.795Z,5.47
2018-12-12T23:40:48.626Z,5.67
2018-12-12T23:45:49.689Z,5.60
2018-12-12T23:50:50.603Z,5.70
2018-12-12T23:55:52.140Z,5.90
